createdAt,value
2017-10-17T00:01:58.112Z,10.60
2017-10-17T00:04:25.610Z,12.47
2017-10-17T00:06:53.123Z,9.60
2017-10-17T00:09:20.603Z,9.27
2017-10-17T00:11:48.077Z,18.93
2017-10-17T00:14:16.311Z,10.07
2017-10-17T00:16:43.789Z,10.83
2017-10-17T00:19:11.345Z,12.10
2017-10-17T00:21:38.918Z,11.40
2017-10-17T00:24:07.180Z,8.50
2017-10-17T00:26:34.641Z,10.40
2017-10-17T00:29:02.122Z,9.60
2017-10-17T00:31:30.361Z,11.70
2017-10-17T00:33:57.833Z,11.00
2017-10-17T00:36:26.213Z,8.83
2017-10-17T00:38:54.367Z,12.93
2017-10-17T00:41:21.829Z,8.00
2017-10-17T00:43:49.406Z,13.67
2017-10-17T00:46:16.872Z,11.57
2017-10-17T00:48:44.349Z,8.37
2017-10-17T00:54:06.816Z,17.07
2017-10-17T00:56:35.049Z,9.30
2017-10-17T00:59:02.521Z,9.60
2017-10-17T01:01:30.751Z,8.47
2017-10-17T01:03:58.232Z,9.60
2017-10-17T01:06:25.708Z,11.97
2017-10-17T01:08:53.952Z,11.67
2017-10-17T01:11:21.429Z,10.47
2017-10-17T01:13:48.904Z,9.90
2017-10-17T01:16:17.148Z,10.83
2017-10-17T01:18:44.628Z,14.67
2017-10-17T01:21:12.775Z,9.70
2017-10-17T01:23:56.824Z,11.60
2017-10-17T01:26:24.289Z,12.53
2017-10-17T01:28:53.665Z,9.27
2017-10-17T01:31:21.136Z,8.60
2017-10-17T01:33:48.612Z,10.67
2017-10-17T01:36:16.084Z,8.07
2017-10-17T01:38:44.261Z,11.20
2017-10-17T01:41:11.729Z,9.43
2017-10-17T01:43:42.648Z,18.30
2017-10-17T01:46:11.637Z,7.87
2017-10-17T01:48:42.784Z,9.30
2017-10-17T01:51:31.775Z,15.40
2017-10-17T01:54:03.688Z,8.20
2017-10-17T01:56:31.156Z,13.77
2017-10-17T01:58:58.647Z,9.20
2017-10-17T02:01:26.111Z,9.80
2017-10-17T02:03:53.587Z,14.57
2017-10-17T02:06:21.071Z,11.10
2017-10-17T02:08:48.546Z,11.77
2017-10-17T02:11:16.706Z,14.83
2017-10-17T02:13:44.172Z,9.30
2017-10-17T02:16:11.652Z,10.47
2017-10-17T02:18:42.861Z,8.77
2017-10-17T02:21:13.211Z,7.60
2017-10-17T02:23:40.773Z,10.43
2017-10-17T02:26:21.908Z,10.27
2017-10-17T02:28:51.064Z,13.83
2017-10-17T02:31:20.184Z,9.03
2017-10-17T02:36:42.904Z,10.83
2017-10-17T02:39:10.377Z,8.43
2017-10-17T02:41:37.853Z,16.60
2017-10-17T02:44:05.327Z,14.33
2017-10-17T02:46:38.314Z,10.67
2017-10-17T02:49:41.324Z,12.17
2017-10-17T02:52:12.265Z,7.90
2017-10-17T02:54:40.507Z,9.50
2017-10-17T02:57:08.025Z,8.27
2017-10-17T02:59:38.161Z,9.90
2017-10-17T03:02:07.432Z,10.20
2017-10-17T03:04:39.556Z,10.97
2017-10-17T03:07:07.044Z,10.40
2017-10-17T03:09:34.504Z,9.03
2017-10-17T03:12:02.756Z,8.50
2017-10-17T03:14:30.228Z,10.13
2017-10-17T03:16:57.709Z,9.60
2017-10-17T03:19:25.968Z,10.00
2017-10-17T03:21:53.449Z,11.27
2017-10-17T03:24:26.515Z,8.77
2017-10-17T03:26:54.005Z,12.40
2017-10-17T03:29:21.497Z,14.83
2017-10-17T03:31:48.974Z,7.80
2017-10-17T03:34:20.852Z,9.47
2017-10-17T03:39:53.439Z,11.70
2017-10-17T03:42:29.069Z,13.20
2017-10-17T03:45:01.403Z,11.63
2017-10-17T03:47:45.416Z,10.10
2017-10-17T03:50:19.185Z,11.67
2017-10-17T03:52:46.661Z,9.37
2017-10-17T03:55:14.139Z,12.47
2017-10-17T03:57:53.053Z,10.30
2017-10-17T04:00:22.063Z,8.70
2017-10-17T04:02:52.056Z,15.87
2017-10-17T04:05:28.164Z,9.77
2017-10-17T04:07:58.068Z,9.90
2017-10-17T04:10:26.304Z,11.50
2017-10-17T04:13:07.512Z,10.40
2017-10-17T04:15:35.749Z,10.20
2017-10-17T04:18:20.704Z,14.13
2017-10-17T04:20:48.196Z,11.60
2017-10-17T04:23:17.457Z,9.67
2017-10-17T04:25:50.565Z,10.13
2017-10-17T04:28:22.555Z,10.33
2017-10-17T04:31:12.851Z,16.33
2017-10-17T04:33:49.178Z,11.07
2017-10-17T04:39:12.921Z,12.53
2017-10-17T04:44:56.665Z,14.40
2017-10-17T04:47:29.625Z,14.03
2017-10-17T04:50:08.977Z,11.40
2017-10-17T04:52:48.244Z,14.83
2017-10-17T04:55:28.452Z,11.10
2017-10-17T04:57:55.932Z,11.17
2017-10-17T05:00:23.400Z,10.77
2017-10-17T05:03:04.638Z,10.50
2017-10-17T05:05:44.864Z,9.90
2017-10-17T05:08:20.720Z,11.37
2017-10-17T05:10:59.752Z,11.00
2017-10-17T05:16:39.138Z,11.97
2017-10-17T05:19:08.433Z,14.20
2017-10-17T05:21:37.590Z,13.20
2017-10-17T05:24:31.808Z,11.00
2017-10-17T05:27:01.863Z,12.90
2017-10-17T05:29:29.336Z,14.00
2017-10-17T05:31:56.826Z,11.13
2017-10-17T05:34:25.071Z,12.53
2017-10-17T05:37:00.029Z,11.90
2017-10-17T05:39:28.954Z,13.87
2017-10-17T05:41:56.435Z,11.37
2017-10-17T05:44:30.379Z,11.90
2017-10-17T05:47:03.423Z,21.17
2017-10-17T05:49:37.533Z,15.70
2017-10-17T05:52:05.024Z,13.13
2017-10-17T05:54:32.496Z,13.50
2017-10-17T05:56:59.991Z,13.93
2017-10-17T05:59:27.468Z,16.73
2017-10-17T06:01:54.956Z,12.33
2017-10-17T06:04:22.424Z,12.70
2017-10-17T06:06:49.899Z,17.80
2017-10-17T06:09:18.145Z,14.00
2017-10-17T06:11:45.620Z,16.57
2017-10-17T06:14:13.105Z,18.30
2017-10-17T06:16:41.336Z,17.80
2017-10-17T06:19:08.841Z,13.23
2017-10-17T06:21:37.074Z,13.87
2017-10-17T06:24:04.560Z,11.93
2017-10-17T06:26:32.038Z,17.50
2017-10-17T06:29:00.396Z,14.63
2017-10-17T06:31:27.877Z,14.70
2017-10-17T06:33:56.230Z,14.30
2017-10-17T06:36:23.716Z,11.23
2017-10-17T06:38:51.251Z,17.33
2017-10-17T06:41:18.806Z,16.00
2017-10-17T06:43:46.292Z,14.07
2017-10-17T06:46:14.540Z,15.47
2017-10-17T06:48:42.109Z,19.07
2017-10-17T06:51:09.585Z,14.60
2017-10-17T06:53:37.848Z,13.37
2017-10-17T06:56:06.116Z,14.67
2017-10-17T06:58:33.591Z,15.20
2017-10-17T07:01:01.863Z,20.80
2017-10-17T07:03:30.128Z,15.50
2017-10-17T07:05:57.712Z,13.73
2017-10-17T07:08:25.936Z,14.10
2017-10-17T07:10:53.436Z,14.50
2017-10-17T07:13:21.678Z,16.13
2017-10-17T07:15:49.172Z,15.23
2017-10-17T07:18:17.438Z,15.70
2017-10-17T07:20:44.932Z,13.53
2017-10-17T07:23:12.413Z,14.40
2017-10-17T07:25:39.892Z,15.90
2017-10-17T07:28:07.473Z,12.67
2017-10-17T07:30:34.965Z,13.10
2017-10-17T07:33:02.488Z,12.67
2017-10-17T07:35:29.977Z,13.33
2017-10-17T07:37:57.533Z,11.37
2017-10-17T07:40:25.009Z,9.40
2017-10-17T07:42:52.477Z,13.97
2017-10-17T07:45:19.994Z,15.40
2017-10-17T07:47:48.260Z,11.17
2017-10-17T07:50:15.744Z,11.77
2017-10-17T07:52:44.004Z,12.67
2017-10-17T07:55:11.561Z,11.37
2017-10-17T07:57:39.040Z,12.97
2017-10-17T08:00:07.280Z,12.53
2017-10-17T08:02:35.213Z,17.80
2017-10-17T08:05:02.751Z,11.50
2017-10-17T08:07:31.000Z,13.93
2017-10-17T08:09:58.480Z,16.07
2017-10-17T08:12:26.728Z,11.90
2017-10-17T08:14:54.203Z,11.40
2017-10-17T08:17:22.456Z,13.30
2017-10-17T08:19:49.937Z,11.43
2017-10-17T08:22:17.436Z,13.23
2017-10-17T08:24:44.904Z,13.63
2017-10-17T08:27:12.407Z,13.10
2017-10-17T08:29:39.885Z,11.27
2017-10-17T08:32:07.379Z,12.70
2017-10-17T08:34:34.851Z,15.27
2017-10-17T08:37:03.104Z,9.80
2017-10-17T08:39:30.581Z,12.93
2017-10-17T08:41:58.072Z,11.77
2017-10-17T08:44:25.543Z,11.17
2017-10-17T08:46:53.024Z,10.70
2017-10-17T08:49:20.493Z,10.60
2017-10-17T08:51:47.974Z,15.17
2017-10-17T08:54:15.460Z,10.47
2017-10-17T08:56:42.960Z,12.20
2017-10-17T08:59:10.433Z,11.90
2017-10-17T09:01:40.444Z,11.10
2017-10-17T09:04:07.931Z,11.43
2017-10-17T09:06:36.175Z,12.33
2017-10-17T09:09:03.661Z,15.00
2017-10-17T09:11:31.140Z,14.50
2017-10-17T09:13:59.383Z,12.10
2017-10-17T09:16:26.863Z,10.57
2017-10-17T09:18:54.340Z,13.07
2017-10-17T09:21:21.815Z,12.33
2017-10-17T09:23:49.333Z,12.77
2017-10-17T09:26:16.813Z,15.17
2017-10-17T09:28:44.294Z,13.30
2017-10-17T09:31:11.773Z,14.40
2017-10-17T09:33:39.256Z,14.40
2017-10-17T09:36:07.506Z,15.07
2017-10-17T09:38:34.996Z,12.27
2017-10-17T09:41:03.275Z,11.57
2017-10-17T09:43:30.801Z,12.10
2017-10-17T09:45:58.264Z,15.70
2017-10-17T09:48:25.743Z,11.83
2017-10-17T09:50:53.979Z,14.70
2017-10-17T09:53:21.455Z,11.93
2017-10-17T09:55:48.923Z,13.83
2017-10-17T09:58:16.435Z,13.63
2017-10-17T10:00:43.928Z,11.97
2017-10-17T10:03:11.406Z,13.20
2017-10-17T10:05:38.895Z,11.23
2017-10-17T10:08:06.368Z,12.27
2017-10-17T10:10:33.845Z,14.90
2017-10-17T10:13:01.312Z,12.87
2017-10-17T10:15:28.796Z,11.53
2017-10-17T10:17:56.274Z,18.03
2017-10-17T10:20:24.516Z,14.60
2017-10-17T10:22:52.011Z,11.90
2017-10-17T10:25:20.257Z,13.70
2017-10-17T10:27:47.719Z,13.03
2017-10-17T10:30:15.205Z,11.67
2017-10-17T10:32:43.441Z,13.37
2017-10-17T10:35:10.916Z,13.50
2017-10-17T10:37:38.389Z,13.70
2017-10-17T10:40:06.869Z,12.57
2017-10-17T10:42:35.109Z,14.40
2017-10-17T10:45:02.594Z,12.30
2017-10-17T10:47:30.068Z,13.07
2017-10-17T10:49:58.321Z,11.57
2017-10-17T10:52:26.581Z,11.63
2017-10-17T10:54:54.108Z,15.20
2017-10-17T10:57:21.625Z,15.70
2017-10-17T10:59:49.149Z,13.57
2017-10-17T11:02:16.621Z,12.20
2017-10-17T11:04:44.112Z,12.40
2017-10-17T11:07:11.588Z,12.10
2017-10-17T11:09:39.841Z,12.80
2017-10-17T11:12:07.323Z,15.03
2017-10-17T11:14:35.571Z,12.20
2017-10-17T11:17:03.268Z,12.47
2017-10-17T11:19:30.772Z,12.60
2017-10-17T11:21:58.268Z,12.37
2017-10-17T11:24:26.516Z,12.83
2017-10-17T11:26:53.992Z,14.13
2017-10-17T11:29:21.460Z,12.20
2017-10-17T11:31:49.702Z,13.43
2017-10-17T11:34:17.189Z,12.07
2017-10-17T11:36:44.672Z,12.87
2017-10-17T11:39:12.928Z,16.13
2017-10-17T11:41:52.356Z,20.40
2017-10-17T11:44:19.829Z,11.83
2017-10-17T11:46:47.309Z,14.43
2017-10-17T11:49:14.776Z,14.30
2017-10-17T11:51:42.257Z,12.50
2017-10-17T11:54:09.737Z,12.37
2017-10-17T11:56:37.221Z,16.10
2017-10-17T11:59:05.468Z,13.73
2017-10-17T12:01:33.041Z,13.97
2017-10-17T12:04:00.515Z,16.03
2017-10-17T12:06:27.988Z,12.53
2017-10-17T12:08:56.240Z,12.33
2017-10-17T12:11:23.732Z,12.70
2017-10-17T12:13:51.290Z,11.00
2017-10-17T12:16:19.525Z,12.03
2017-10-17T12:18:47.975Z,13.67
2017-10-17T12:21:15.459Z,12.30
2017-10-17T12:23:42.961Z,11.10
2017-10-17T12:26:11.193Z,11.93
2017-10-17T12:28:38.689Z,12.93
2017-10-17T12:31:06.941Z,16.40
2017-10-17T12:33:34.432Z,11.67
2017-10-17T12:36:02.668Z,15.73
2017-10-17T12:38:30.174Z,16.10
2017-10-17T12:40:58.471Z,14.90
2017-10-17T12:43:26.068Z,11.43
2017-10-17T12:45:53.538Z,10.60
2017-10-17T12:48:21.013Z,11.43
2017-10-17T12:50:49.257Z,12.97
2017-10-17T12:53:16.737Z,14.23
2017-10-17T12:55:44.269Z,15.43
2017-10-17T12:58:11.832Z,12.33
2017-10-17T13:00:39.297Z,12.63
2017-10-17T13:03:06.779Z,13.67
2017-10-17T13:05:34.257Z,15.13
2017-10-17T13:08:02.496Z,12.60
2017-10-17T13:10:29.977Z,16.70
2017-10-17T13:12:57.456Z,12.47
2017-10-17T13:15:24.936Z,14.23
2017-10-17T13:17:52.430Z,12.43
2017-10-17T13:20:19.896Z,17.53
2017-10-17T13:22:47.407Z,13.10
2017-10-17T13:25:14.886Z,15.23
2017-10-17T13:27:42.352Z,11.60
2017-10-17T13:30:10.652Z,16.77
2017-10-17T13:32:38.148Z,12.40
2017-10-17T13:35:06.389Z,12.27
2017-10-17T13:37:33.857Z,11.10
2017-10-17T13:40:02.124Z,11.80
2017-10-17T13:42:29.610Z,17.23
2017-10-17T13:44:58.288Z,13.33
2017-10-17T13:47:26.525Z,15.60
2017-10-17T13:49:54.016Z,12.47
2017-10-17T13:52:21.488Z,12.00
2017-10-17T13:54:49.736Z,21.03
2017-10-17T13:57:17.204Z,15.70
2017-10-17T13:59:44.677Z,13.10
2017-10-17T14:02:12.947Z,12.63
2017-10-17T14:04:41.190Z,19.23
2017-10-17T14:07:08.712Z,14.60
2017-10-17T14:09:36.177Z,15.83
2017-10-17T14:12:03.680Z,14.00
2017-10-17T14:14:31.190Z,18.00
2017-10-17T14:16:58.822Z,13.63
2017-10-17T14:19:27.080Z,13.47
2017-10-17T14:21:54.560Z,14.43
2017-10-17T14:24:22.796Z,15.23
2017-10-17T14:26:50.273Z,14.27
2017-10-17T14:29:17.767Z,17.80
2017-10-17T14:31:46.016Z,18.13
2017-10-17T14:34:13.561Z,13.57
2017-10-17T14:36:41.061Z,14.27
2017-10-17T14:39:09.365Z,15.80
2017-10-17T14:41:37.265Z,18.70
2017-10-17T14:44:04.748Z,14.37
2017-10-17T14:46:32.224Z,14.40
2017-10-17T14:49:00.462Z,18.50
2017-10-17T14:51:27.947Z,17.37
2017-10-17T14:53:55.412Z,15.27
2017-10-17T14:56:23.688Z,14.83
2017-10-17T14:58:51.916Z,16.77
2017-10-17T15:01:19.405Z,16.10
2017-10-17T15:03:46.871Z,16.00
2017-10-17T15:06:14.377Z,14.10
2017-10-17T15:08:41.861Z,19.37
2017-10-17T15:11:09.365Z,15.03
2017-10-17T15:13:37.617Z,15.33
2017-10-17T15:16:05.112Z,16.33
2017-10-17T15:18:33.345Z,16.00
2017-10-17T15:21:00.832Z,15.30
2017-10-17T15:23:29.073Z,17.33
2017-10-17T15:25:56.568Z,15.23
2017-10-17T15:28:24.818Z,15.77
2017-10-17T15:30:52.308Z,23.43
2017-10-17T15:33:20.545Z,20.57
2017-10-17T15:35:48.029Z,14.77
2017-10-17T15:38:15.504Z,16.33
2017-10-17T15:40:43.756Z,16.57
2017-10-17T15:43:11.234Z,16.67
2017-10-17T15:45:39.491Z,18.63
2017-10-17T15:48:07.003Z,15.60
2017-10-17T15:50:34.473Z,16.33
2017-10-17T15:53:01.956Z,14.90
2017-10-17T15:55:29.424Z,15.10
2017-10-17T15:57:56.910Z,15.73
2017-10-17T16:00:25.145Z,15.43
2017-10-17T16:02:52.629Z,25.87
2017-10-17T16:05:20.107Z,20.40
2017-10-17T16:07:48.348Z,22.73
2017-10-17T16:10:15.818Z,20.60
2017-10-17T16:12:43.312Z,15.57
2017-10-17T16:15:10.801Z,19.30
2017-10-17T16:17:38.278Z,17.33
2017-10-17T16:20:05.765Z,17.83
2017-10-17T16:22:34.041Z,19.03
2017-10-17T16:25:02.306Z,20.23
2017-10-17T16:27:29.776Z,21.80
2017-10-17T16:29:58.046Z,18.80
2017-10-17T16:32:26.296Z,20.90
2017-10-17T16:34:53.805Z,16.80
2017-10-17T16:37:22.032Z,20.23
2017-10-17T16:39:49.514Z,16.73
2017-10-17T16:42:17.038Z,22.07
2017-10-17T16:44:44.501Z,18.73
2017-10-17T16:47:12.754Z,34.33
2017-10-17T16:49:40.232Z,20.50
2017-10-17T16:52:07.716Z,18.33
2017-10-17T16:54:35.196Z,16.67
2017-10-17T16:57:03.444Z,17.37
2017-10-17T16:59:30.924Z,19.63
2017-10-17T17:01:58.405Z,16.20
2017-10-17T17:04:25.909Z,19.43
2017-10-17T17:06:53.375Z,18.47
2017-10-17T17:09:20.872Z,23.83
2017-10-17T17:11:48.370Z,21.70
2017-10-17T17:14:15.869Z,23.53
2017-10-17T17:16:43.340Z,17.10
2017-10-17T17:19:11.590Z,17.57
2017-10-17T17:21:39.075Z,18.07
2017-10-17T17:24:07.357Z,18.07
2017-10-17T17:26:35.597Z,18.37
2017-10-17T17:29:03.080Z,17.10
2017-10-17T17:31:30.565Z,21.23
2017-10-17T17:33:58.046Z,20.73
2017-10-17T17:36:25.526Z,17.77
2017-10-17T17:38:53.020Z,18.43
2017-10-17T17:41:20.506Z,19.67
2017-10-17T17:43:47.983Z,24.30
2017-10-17T17:46:15.470Z,17.53
2017-10-17T17:48:42.952Z,18.83
2017-10-17T17:51:10.446Z,17.70
2017-10-17T17:53:37.924Z,19.20
2017-10-17T17:56:05.403Z,20.00
2017-10-17T17:58:32.883Z,18.53
2017-10-17T18:01:00.376Z,19.57
2017-10-17T18:03:27.864Z,21.33
2017-10-17T18:06:01.007Z,19.30
2017-10-17T18:08:29.249Z,16.43
2017-10-17T18:10:56.729Z,15.90
2017-10-17T18:13:24.205Z,16.77
2017-10-17T18:15:52.442Z,19.50
2017-10-17T18:18:19.920Z,16.83
2017-10-17T18:20:47.396Z,17.37
2017-10-17T18:23:15.656Z,18.63
2017-10-17T18:25:43.125Z,16.13
2017-10-17T18:28:11.376Z,15.93
2017-10-17T18:30:38.856Z,16.87
2017-10-17T18:33:07.104Z,20.50
2017-10-17T18:35:35.370Z,18.77
2017-10-17T18:38:02.840Z,21.50
2017-10-17T18:40:30.315Z,17.70
2017-10-17T18:42:57.810Z,16.83
2017-10-17T18:45:25.275Z,17.47
2017-10-17T18:47:52.764Z,15.57
2017-10-17T18:50:20.233Z,15.33
2017-10-17T18:52:47.718Z,15.20
2017-10-17T18:55:15.207Z,16.33
2017-10-17T18:57:42.701Z,17.03
2017-10-17T19:00:10.206Z,16.03
2017-10-17T19:02:38.452Z,19.67
2017-10-17T19:05:05.935Z,20.50
2017-10-17T19:07:34.186Z,15.73
2017-10-17T19:10:01.660Z,16.97
2017-10-17T19:12:29.139Z,16.40
2017-10-17T19:14:57.397Z,19.93
2017-10-17T19:17:24.895Z,17.20
2017-10-17T19:19:52.393Z,18.53
2017-10-17T19:22:19.872Z,19.27
2017-10-17T19:24:47.352Z,20.13
2017-10-17T19:27:15.593Z,17.20
2017-10-17T19:29:43.069Z,18.60
2017-10-17T19:32:11.331Z,21.10
2017-10-17T19:34:38.809Z,18.53
2017-10-17T19:37:07.053Z,17.83
2017-10-17T19:39:34.534Z,24.53
2017-10-17T19:42:02.000Z,19.00
2017-10-17T19:44:30.251Z,22.83
2017-10-17T19:46:57.729Z,21.37
2017-10-17T19:49:25.991Z,20.63
2017-10-17T19:51:53.465Z,19.50
2017-10-17T19:54:20.953Z,20.20
2017-10-17T19:56:48.436Z,24.03
2017-10-17T19:59:16.008Z,22.60
2017-10-17T20:01:43.492Z,22.10
2017-10-17T20:04:10.964Z,20.03
2017-10-17T20:06:39.212Z,21.23
2017-10-17T20:09:06.704Z,21.63
2017-10-17T20:11:34.969Z,17.53
2017-10-17T20:14:02.441Z,19.77
2017-10-17T20:16:30.681Z,17.83
2017-10-17T20:18:58.161Z,22.83
2017-10-17T20:21:25.668Z,20.80
2017-10-17T20:23:53.128Z,17.97
2017-10-17T20:26:20.617Z,18.57
2017-10-17T20:28:48.102Z,21.80
2017-10-17T20:31:15.599Z,26.17
2017-10-17T20:33:43.071Z,19.33
2017-10-17T20:36:10.566Z,20.67
2017-10-17T20:38:38.040Z,25.03
2017-10-17T20:41:06.292Z,19.77
2017-10-17T20:43:33.774Z,22.27
2017-10-17T20:46:02.021Z,25.17
2017-10-17T20:48:29.509Z,17.10
2017-10-17T20:50:57.752Z,16.97
2017-10-17T20:53:25.231Z,16.73
2017-10-17T20:55:52.721Z,17.30
2017-10-17T20:58:20.421Z,17.60
2017-10-17T21:00:47.924Z,18.40
2017-10-17T21:03:16.163Z,19.90
2017-10-17T21:05:43.641Z,20.63
2017-10-17T21:08:11.140Z,19.57
2017-10-17T21:10:38.620Z,15.37
2017-10-17T21:13:06.104Z,17.60
2017-10-17T21:15:33.592Z,22.73
2017-10-17T21:18:01.837Z,19.83
2017-10-17T21:20:29.313Z,18.53
2017-10-17T21:22:56.795Z,18.30
2017-10-17T21:25:25.029Z,17.47
2017-10-17T21:27:52.513Z,19.43
2017-10-17T21:30:20.394Z,17.53
2017-10-17T21:32:47.993Z,21.33
2017-10-17T21:35:15.490Z,18.43
2017-10-17T21:37:42.968Z,21.17
2017-10-17T21:40:11.216Z,16.50
2017-10-17T21:42:38.692Z,21.43
2017-10-17T21:45:06.225Z,20.60
2017-10-17T21:47:33.714Z,19.00
2017-10-17T21:50:01.200Z,23.33
2017-10-17T21:52:28.753Z,21.17
2017-10-17T21:54:56.993Z,16.93
2017-10-17T21:57:24.476Z,19.53
2017-10-17T21:59:52.726Z,19.03
2017-10-17T22:02:20.251Z,17.07
2017-10-17T22:04:47.733Z,20.30
2017-10-17T22:07:15.231Z,18.80
2017-10-17T22:09:43.481Z,18.87
2017-10-17T22:12:11.062Z,18.87
2017-10-17T22:14:38.537Z,21.13
2017-10-17T22:17:06.905Z,19.87
2017-10-17T22:19:35.155Z,18.00
2017-10-17T22:22:02.627Z,18.13
2017-10-17T22:24:30.109Z,16.83
2017-10-17T22:26:58.359Z,19.20
2017-10-17T22:29:25.837Z,23.33
2017-10-17T22:31:54.080Z,18.23
2017-10-17T22:34:21.569Z,21.10
2017-10-17T22:36:49.812Z,21.83
2017-10-17T22:39:17.302Z,19.53
2017-10-17T22:41:45.551Z,22.13
2017-10-17T22:44:13.028Z,17.80
2017-10-17T22:46:40.520Z,23.50
2017-10-17T22:49:08.099Z,20.60
2017-10-17T22:51:35.556Z,20.70
2017-10-17T22:54:03.069Z,20.60
2017-10-17T22:56:30.582Z,22.40
2017-10-17T22:58:58.082Z,25.73
2017-10-17T23:01:26.349Z,21.30
2017-10-17T23:03:53.832Z,20.57
2017-10-17T23:06:22.076Z,19.33
2017-10-17T23:08:49.556Z,21.40
2017-10-17T23:11:17.039Z,20.27
2017-10-17T23:13:45.291Z,20.93
2017-10-17T23:16:12.756Z,19.37
2017-10-17T23:18:52.959Z,24.23
2017-10-17T23:21:20.429Z,20.70
2017-10-17T23:23:47.904Z,20.80
2017-10-17T23:26:16.165Z,23.20
2017-10-17T23:28:43.656Z,18.33
2017-10-17T23:31:11.180Z,21.83
2017-10-17T23:33:40.197Z,26.37
2017-10-17T23:36:08.429Z,20.20
2017-10-17T23:38:35.921Z,20.33
2017-10-17T23:41:04.191Z,21.23
2017-10-17T23:46:05.676Z,19.77
2017-10-17T23:48:33.962Z,18.33
2017-10-17T23:51:02.196Z,18.60
2017-10-17T23:53:29.691Z,18.83
2017-10-17T23:55:57.941Z,23.27
2017-10-17T23:58:25.507Z,22.03
